NASA967 KEFD-KLAL
Flight info
| Callsign | NASA967 |
|---|---|
| Flight time | 1h 30m |
| Altitude | 38000 |
| Route | KEFD SBI LLA LEV REDFN NAITE ROZZI REMIS DAAWG CHIVE KLAL |
| Aircraft | T38/L-SGY/S |
Departure
| Time | 2026-04-26 19:41 |
|---|---|
| Airport | Ellington Airport (KEFD) |
Arrival
| Time | 2026-04-26 21:11 |
|---|---|
| Airport | Lakeland Linder International Airport (KLAL) |
| Time | Latitude | Longitude | Altitude | Speed | Heading |
|---|---|---|---|---|---|
| 2026-04-26 19:23 | 29.59724 | -95.16725 | 36 ft | 0 kts | 360° |
| 2026-04-26 19:35 | 29.59726 | -95.16709 | 36 ft | 8 kts | 133° |
| 2026-04-26 19:35 | 29.59704 | -95.16667 | 36 ft | 0 kts | 89° |
| 2026-04-26 19:35 | 29.59704 | -95.16660 | 37 ft | 9 kts | 90° |
| 2026-04-26 19:36 | 29.59751 | -95.16623 | 37 ft | 16 kts | 357° |
| 2026-04-26 19:36 | 29.59797 | -95.16625 | 37 ft | 23 kts | 358° |
| 2026-04-26 19:36 | 29.60071 | -95.16632 | 38 ft | 25 kts | 0° |
| 2026-04-26 19:36 | 29.60258 | -95.16635 | 39 ft | 28 kts | 360° |
| 2026-04-26 19:37 | 29.60450 | -95.16640 | 38 ft | 29 kts | 0° |
| 2026-04-26 19:37 | 29.60659 | -95.16646 | 38 ft | 31 kts | 359° |
| 2026-04-26 19:37 | 29.60886 | -95.16652 | 35 ft | 34 kts | 359° |
| 2026-04-26 19:37 | 29.61112 | -95.16655 | 36 ft | 33 kts | 358° |
| 2026-04-26 19:38 | 29.61348 | -95.16661 | 35 ft | 35 kts | 360° |
| 2026-04-26 19:38 | 29.61591 | -95.16670 | 38 ft | 36 kts | 3° |
| 2026-04-26 19:38 | 29.61731 | -95.16588 | 38 ft | 21 kts | 43° |
| 2026-04-26 19:38 | 29.61761 | -95.16558 | 37 ft | 0 kts | 39° |
| 2026-04-26 19:40 | 29.61799 | -95.16510 | 36 ft | 20 kts | 48° |
| 2026-04-26 19:40 | 29.61806 | -95.16452 | 35 ft | 0 kts | 178° |
| 2026-04-26 19:40 | 29.61781 | -95.16451 | 35 ft | 29 kts | 178° |
| 2026-04-26 19:40 | 29.61165 | -95.16434 | 39 ft | 141 kts | 179° |
| 2026-04-26 19:41 | 29.59923 | -95.16452 | 372 ft | 208 kts | 179° |
| 2026-04-26 19:41 | 29.58367 | -95.16094 | 1446 ft | 247 kts | 143° |
| 2026-04-26 19:41 | 29.57378 | -95.15243 | 1931 ft | 292 kts | 143° |
| 2026-04-26 19:41 | 29.56281 | -95.14245 | 2565 ft | 291 kts | 142° |
| 2026-04-26 19:42 | 29.54143 | -95.12275 | 3215 ft | 334 kts | 144° |
| 2026-04-26 19:42 | 29.52305 | -95.10398 | 3495 ft | 362 kts | 135° |
| 2026-04-26 19:42 | 29.51122 | -95.07840 | 3499 ft | 386 kts | 85° |
| 2026-04-26 19:42 | 29.52320 | -95.05007 | 2945 ft | 412 kts | 50° |
| 2026-04-26 19:43 | 29.54623 | -95.03208 | 2822 ft | 389 kts | 24° |
| 2026-04-26 19:43 | 29.57114 | -95.02281 | 2315 ft | 373 kts | 16° |
| 2026-04-26 19:43 | 29.59511 | -95.01339 | 2550 ft | 363 kts | 45° |
| 2026-04-26 19:43 | 29.60544 | -94.98779 | 3216 ft | 367 kts | 83° |
| 2026-04-26 19:44 | 29.60991 | -94.95845 | 4132 ft | 361 kts | 81° |
| 2026-04-26 19:44 | 29.61506 | -94.93032 | 5052 ft | 363 kts | 81° |
| 2026-04-26 19:44 | 29.62016 | -94.90201 | 6085 ft | 376 kts | 81° |
| 2026-04-26 19:44 | 29.62537 | -94.87226 | 7258 ft | 384 kts | 81° |
| 2026-04-26 19:45 | 29.63119 | -94.84135 | 8252 ft | 410 kts | 79° |
| 2026-04-26 19:45 | 29.63702 | -94.80896 | 9042 ft | 392 kts | 79° |
| 2026-04-26 19:45 | 29.64203 | -94.77949 | 9733 ft | 371 kts | 79° |
| 2026-04-26 19:45 | 29.64710 | -94.74975 | 10361 ft | 390 kts | 79° |
| 2026-04-26 19:46 | 29.65250 | -94.71833 | 11214 ft | 408 kts | 78° |
| 2026-04-26 19:46 | 29.65816 | -94.68692 | 12185 ft | 391 kts | 78° |
| 2026-04-26 19:46 | 29.66382 | -94.65615 | 12816 ft | 399 kts | 77° |
| 2026-04-26 19:46 | 29.66995 | -94.62406 | 13324 ft | 420 kts | 77° |
| 2026-04-26 19:47 | 29.67576 | -94.59119 | 14047 ft | 422 kts | 77° |
| 2026-04-26 19:47 | 29.67966 | -94.56927 | 14538 ft | 424 kts | 77° |
| 2026-04-26 19:47 | 29.68742 | -94.52579 | 15331 ft | 410 kts | 77° |
| 2026-04-26 19:47 | 29.69322 | -94.49328 | 16185 ft | 424 kts | 77° |
| 2026-04-26 19:48 | 29.69893 | -94.45934 | 17151 ft | 440 kts | 77° |
| 2026-04-26 19:48 | 29.70479 | -94.42408 | 18062 ft | 456 kts | 76° |
| 2026-04-26 19:48 | 29.71081 | -94.38774 | 18972 ft | 467 kts | 76° |
| 2026-04-26 19:48 | 29.71755 | -94.35093 | 19969 ft | 474 kts | 76° |
| 2026-04-26 19:49 | 29.72132 | -94.31264 | 20767 ft | 491 kts | 88° |
| 2026-04-26 19:49 | 29.71874 | -94.27284 | 21406 ft | 507 kts | 98° |
| 2026-04-26 19:49 | 29.71251 | -94.23269 | 22362 ft | 511 kts | 100° |
| 2026-04-26 19:49 | 29.70637 | -94.19248 | 23481 ft | 513 kts | 97° |
| 2026-04-26 19:50 | 29.70111 | -94.15184 | 24361 ft | 513 kts | 97° |
| 2026-04-26 19:50 | 29.69614 | -94.11118 | 25253 ft | 515 kts | 97° |
| 2026-04-26 19:50 | 29.69075 | -94.07050 | 26090 ft | 514 kts | 98° |
| 2026-04-26 19:50 | 29.68599 | -94.02969 | 26833 ft | 515 kts | 90° |
| 2026-04-26 19:51 | 29.68541 | -93.98862 | 27588 ft | 515 kts | 89° |
| 2026-04-26 19:51 | 29.68504 | -93.94726 | 28165 ft | 519 kts | 88° |
| 2026-04-26 19:51 | 29.68462 | -93.90553 | 28694 ft | 523 kts | 89° |
| 2026-04-26 19:51 | 29.68385 | -93.86363 | 29332 ft | 525 kts | 89° |
| 2026-04-26 19:52 | 29.68296 | -93.82158 | 29933 ft | 527 kts | 89° |
| 2026-04-26 19:52 | 29.68203 | -93.77936 | 30384 ft | 530 kts | 89° |
| 2026-04-26 19:52 | 29.68104 | -93.73675 | 30690 ft | 536 kts | 89° |
| 2026-04-26 19:52 | 29.68014 | -93.69388 | 31177 ft | 536 kts | 89° |
| 2026-04-26 19:53 | 29.67934 | -93.65113 | 31734 ft | 534 kts | 87° |
| 2026-04-26 19:53 | 29.67876 | -93.60818 | 31992 ft | 540 kts | 88° |
| 2026-04-26 19:53 | 29.67688 | -93.56477 | 32244 ft | 548 kts | 96° |
| 2026-04-26 19:53 | 29.67050 | -93.52134 | 32446 ft | 556 kts | 98° |
| 2026-04-26 19:54 | 29.66361 | -93.47750 | 32747 ft | 558 kts | 98° |
| 2026-04-26 19:54 | 29.65705 | -93.43325 | 32994 ft | 563 kts | 97° |
| 2026-04-26 19:54 | 29.65043 | -93.38893 | 33392 ft | 563 kts | 97° |
| 2026-04-26 19:54 | 29.64366 | -93.34455 | 33784 ft | 564 kts | 97° |
| 2026-04-26 19:55 | 29.63703 | -93.29998 | 34062 ft | 566 kts | 97° |
| 2026-04-26 19:55 | 29.63028 | -93.25533 | 34357 ft | 567 kts | 97° |
| 2026-04-26 19:55 | 29.62373 | -93.21091 | 34849 ft | 563 kts | 97° |
| 2026-04-26 19:55 | 29.61724 | -93.16651 | 35189 ft | 562 kts | 97° |
| 2026-04-26 19:56 | 29.61047 | -93.12227 | 35558 ft | 561 kts | 98° |
| 2026-04-26 19:56 | 29.60343 | -93.07826 | 35925 ft | 560 kts | 98° |
| 2026-04-26 19:56 | 29.59682 | -93.03418 | 36202 ft | 559 kts | 96° |
| 2026-04-26 19:56 | 29.59069 | -92.99007 | 36567 ft | 557 kts | 96° |
| 2026-04-26 19:57 | 29.58459 | -92.94617 | 36845 ft | 558 kts | 96° |
| 2026-04-26 19:57 | 29.57801 | -92.90202 | 36861 ft | 564 kts | 97° |
| 2026-04-26 19:57 | 29.56450 | -92.81316 | 37072 ft | 570 kts | 97° |
| 2026-04-26 19:58 | 29.55098 | -92.72216 | 36846 ft | 586 kts | 97° |
| 2026-04-26 19:58 | 29.54433 | -92.67591 | 36954 ft | 589 kts | 97° |
| 2026-04-26 19:58 | 29.53763 | -92.62927 | 36986 ft | 594 kts | 97° |
| 2026-04-26 19:59 | 29.53056 | -92.58249 | 37112 ft | 596 kts | 97° |
| 2026-04-26 19:59 | 29.52361 | -92.53542 | 37141 ft | 600 kts | 97° |
| 2026-04-26 19:59 | 29.50908 | -92.43995 | 37004 ft | 612 kts | 97° |
| 2026-04-26 20:00 | 29.50219 | -92.39166 | 37147 ft | 614 kts | 97° |
| 2026-04-26 20:00 | 29.49545 | -92.34306 | 37095 ft | 620 kts | 96° |
| 2026-04-26 20:00 | 29.48148 | -92.24458 | 36784 ft | 629 kts | 97° |
| 2026-04-26 20:01 | 29.46688 | -92.14607 | 37051 ft | 625 kts | 97° |
| 2026-04-26 20:01 | 29.45931 | -92.09663 | 36774 ft | 627 kts | 97° |
| 2026-04-26 20:01 | 29.45177 | -92.04741 | 36897 ft | 627 kts | 97° |
| 2026-04-26 20:02 | 29.43783 | -91.94885 | 36907 ft | 624 kts | 97° |
| 2026-04-26 20:02 | 29.43080 | -91.90058 | 36973 ft | 608 kts | 98° |
| 2026-04-26 20:02 | 29.42596 | -91.86904 | 36980 ft | 606 kts | 97° |
| 2026-04-26 20:03 | 29.40924 | -91.75784 | 36897 ft | 606 kts | 97° |
| 2026-04-26 20:03 | 29.39469 | -91.66305 | 37014 ft | 602 kts | 97° |
| 2026-04-26 20:04 | 29.38083 | -91.56857 | 37046 ft | 600 kts | 97° |
| 2026-04-26 20:04 | 29.36713 | -91.47402 | 36915 ft | 603 kts | 97° |
| 2026-04-26 20:05 | 29.35305 | -91.37924 | 36905 ft | 603 kts | 97° |
| 2026-04-26 20:05 | 29.33943 | -91.28448 | 37020 ft | 601 kts | 96° |
| 2026-04-26 20:06 | 29.33225 | -91.23739 | 37140 ft | 600 kts | 97° |
| 2026-04-26 20:06 | 29.32512 | -91.19026 | 37140 ft | 600 kts | 97° |
| 2026-04-26 20:06 | 29.31784 | -91.14308 | 37025 ft | 604 kts | 97° |
| 2026-04-26 20:06 | 29.31051 | -91.09559 | 36915 ft | 606 kts | 97° |
| 2026-04-26 20:07 | 29.29639 | -91.00029 | 36909 ft | 606 kts | 96° |
| 2026-04-26 20:07 | 29.28351 | -90.90516 | 37146 ft | 602 kts | 97° |
| 2026-04-26 20:08 | 29.26972 | -90.81054 | 37081 ft | 604 kts | 96° |
| 2026-04-26 20:08 | 29.26327 | -90.76290 | 36902 ft | 608 kts | 96° |
| 2026-04-26 20:08 | 29.25668 | -90.71497 | 36940 ft | 607 kts | 96° |
| 2026-04-26 20:09 | 29.25008 | -90.66750 | 37192 ft | 601 kts | 96° |
| 2026-04-26 20:09 | 29.24317 | -90.62056 | 37491 ft | 594 kts | 97° |
| 2026-04-26 20:09 | 29.23596 | -90.57453 | 37683 ft | 586 kts | 97° |
| 2026-04-26 20:09 | 29.22916 | -90.52850 | 37400 ft | 591 kts | 96° |
| 2026-04-26 20:10 | 29.21673 | -90.43574 | 37349 ft | 589 kts | 95° |
| 2026-04-26 20:10 | 29.21070 | -90.38914 | 37100 ft | 593 kts | 95° |
| 2026-04-26 20:10 | 29.20442 | -90.34253 | 37086 ft | 594 kts | 96° |
| 2026-04-26 20:11 | 29.19120 | -90.24916 | 36992 ft | 597 kts | 97° |
| 2026-04-26 20:11 | 29.18435 | -90.20200 | 36781 ft | 602 kts | 96° |
| 2026-04-26 20:12 | 29.17221 | -90.10732 | 36943 ft | 598 kts | 94° |
| 2026-04-26 20:12 | 29.16111 | -90.01308 | 37058 ft | 597 kts | 95° |
| 2026-04-26 20:12 | 29.15444 | -89.96625 | 37181 ft | 597 kts | 100° |
| 2026-04-26 20:13 | 29.14341 | -89.92054 | 37411 ft | 594 kts | 103° |
| 2026-04-26 20:13 | 29.12212 | -89.82744 | 37197 ft | 619 kts | 101° |
| 2026-04-26 20:13 | 29.11227 | -89.77976 | 36924 ft | 631 kts | 101° |
| 2026-04-26 20:14 | 29.10169 | -89.73093 | 36731 ft | 633 kts | 102° |
| 2026-04-26 20:14 | 29.08025 | -89.63341 | 36818 ft | 634 kts | 102° |
| 2026-04-26 20:15 | 29.05948 | -89.53585 | 36961 ft | 626 kts | 101° |
| 2026-04-26 20:15 | 29.04949 | -89.48929 | 37123 ft | 615 kts | 102° |
| 2026-04-26 20:15 | 29.03919 | -89.44168 | 36987 ft | 617 kts | 101° |
| 2026-04-26 20:16 | 29.01860 | -89.34723 | 36889 ft | 608 kts | 101° |
| 2026-04-26 20:16 | 29.00835 | -89.30045 | 37017 ft | 606 kts | 101° |
| 2026-04-26 20:16 | 28.99818 | -89.25372 | 37000 ft | 607 kts | 101° |
| 2026-04-26 20:17 | 28.97774 | -89.15997 | 36967 ft | 609 kts | 101° |
| 2026-04-26 20:17 | 28.95782 | -89.06568 | 37044 ft | 611 kts | 101° |
| 2026-04-26 20:18 | 28.93773 | -88.97113 | 37171 ft | 615 kts | 101° |
| 2026-04-26 20:18 | 28.92784 | -88.92343 | 37041 ft | 621 kts | 101° |
| 2026-04-26 20:18 | 28.91788 | -88.87536 | 36914 ft | 618 kts | 101° |
| 2026-04-26 20:19 | 28.89822 | -88.78096 | 36960 ft | 608 kts | 101° |
| 2026-04-26 20:19 | 28.88859 | -88.73413 | 37095 ft | 604 kts | 100° |
| 2026-04-26 20:19 | 28.87693 | -88.68798 | 37063 ft | 606 kts | 107° |
| 2026-04-26 20:20 | 28.85088 | -88.59669 | 37098 ft | 604 kts | 105° |
| 2026-04-26 20:20 | 28.83177 | -88.52863 | 37118 ft | 603 kts | 106° |
| 2026-04-26 20:21 | 28.82628 | -88.50943 | 37084 ft | 605 kts | 106° |
| 2026-04-26 20:21 | 28.81323 | -88.46359 | 36944 ft | 610 kts | 106° |
| 2026-04-26 20:21 | 28.80253 | -88.42511 | 37002 ft | 611 kts | 105° |
| 2026-04-26 20:21 | 28.79011 | -88.37870 | 37176 ft | 614 kts | 105° |
| 2026-04-26 20:22 | 28.77684 | -88.33214 | 37224 ft | 620 kts | 106° |
| 2026-04-26 20:22 | 28.75114 | -88.23802 | 37608 ft | 619 kts | 105° |
| 2026-04-26 20:22 | 28.73879 | -88.19228 | 37301 ft | 629 kts | 104° |
| 2026-04-26 20:23 | 28.72638 | -88.14481 | 37271 ft | 617 kts | 105° |
| 2026-04-26 20:23 | 28.71379 | -88.09766 | 37023 ft | 624 kts | 105° |
| 2026-04-26 20:23 | 28.70127 | -88.05222 | 36971 ft | 623 kts | 106° |
| 2026-04-26 20:24 | 28.67401 | -87.95821 | 36912 ft | 627 kts | 107° |
| 2026-04-26 20:24 | 28.66071 | -87.91244 | 37031 ft | 622 kts | 107° |
| 2026-04-26 20:24 | 28.65173 | -87.88181 | 37321 ft | 612 kts | 107° |
| 2026-04-26 20:25 | 28.62502 | -87.79003 | 37318 ft | 611 kts | 107° |
| 2026-04-26 20:25 | 28.59800 | -87.69858 | 37339 ft | 610 kts | 107° |
| 2026-04-26 20:26 | 28.57150 | -87.60679 | 37216 ft | 611 kts | 106° |
| 2026-04-26 20:26 | 28.54472 | -87.51474 | 36587 ft | 622 kts | 107° |
| 2026-04-26 20:26 | 28.53104 | -87.46805 | 35464 ft | 602 kts | 107° |
| 2026-04-26 20:27 | 28.51821 | -87.42308 | 36312 ft | 597 kts | 106° |
| 2026-04-26 20:27 | 28.50529 | -87.37813 | 36592 ft | 598 kts | 106° |
| 2026-04-26 20:27 | 28.49235 | -87.33323 | 36803 ft | 598 kts | 106° |
| 2026-04-26 20:27 | 28.47943 | -87.28832 | 37013 ft | 599 kts | 106° |
| 2026-04-26 20:28 | 28.46658 | -87.24323 | 37157 ft | 600 kts | 105° |
| 2026-04-26 20:28 | 28.44023 | -87.15231 | 37035 ft | 612 kts | 106° |
| 2026-04-26 20:28 | 28.42705 | -87.10601 | 36886 ft | 618 kts | 106° |
| 2026-04-26 20:29 | 28.41379 | -87.05953 | 36956 ft | 618 kts | 106° |
| 2026-04-26 20:29 | 28.40093 | -87.01428 | 37047 ft | 602 kts | 106° |
| 2026-04-26 20:29 | 28.38788 | -86.96940 | 37051 ft | 599 kts | 106° |
| 2026-04-26 20:30 | 28.36213 | -86.87915 | 37086 ft | 603 kts | 105° |
| 2026-04-26 20:30 | 28.33614 | -86.78818 | 37092 ft | 607 kts | 105° |
| 2026-04-26 20:31 | 28.31137 | -86.69621 | 36978 ft | 612 kts | 104° |
| 2026-04-26 20:31 | 28.28379 | -86.60467 | 37132 ft | 610 kts | 107° |
| 2026-04-26 20:31 | 28.27006 | -86.55920 | 37267 ft | 612 kts | 106° |
| 2026-04-26 20:32 | 28.25646 | -86.51345 | 37318 ft | 613 kts | 106° |
| 2026-04-26 20:32 | 28.22866 | -86.42192 | 37280 ft | 617 kts | 107° |
| 2026-04-26 20:32 | 28.21466 | -86.37565 | 36935 ft | 625 kts | 107° |
| 2026-04-26 20:33 | 28.20067 | -86.32904 | 36775 ft | 623 kts | 107° |
| 2026-04-26 20:33 | 28.17274 | -86.23649 | 37029 ft | 618 kts | 106° |
| 2026-04-26 20:34 | 28.14509 | -86.14497 | 37040 ft | 620 kts | 106° |
| 2026-04-26 20:34 | 28.11723 | -86.05240 | 36917 ft | 619 kts | 106° |
| 2026-04-26 20:35 | 28.08937 | -85.95965 | 37039 ft | 616 kts | 106° |
| 2026-04-26 20:35 | 28.07589 | -85.91367 | 37196 ft | 614 kts | 105° |
| 2026-04-26 20:35 | 28.06225 | -85.86777 | 37174 ft | 617 kts | 106° |
| 2026-04-26 20:35 | 28.04862 | -85.82228 | 36937 ft | 622 kts | 107° |
| 2026-04-26 20:36 | 28.03449 | -85.77537 | 36917 ft | 619 kts | 106° |
| 2026-04-26 20:36 | 28.00729 | -85.68307 | 37015 ft | 615 kts | 106° |
| 2026-04-26 20:36 | 27.99348 | -85.63754 | 37249 ft | 613 kts | 106° |
| 2026-04-26 20:37 | 27.97985 | -85.59186 | 37365 ft | 612 kts | 106° |
| 2026-04-26 20:37 | 27.95297 | -85.50075 | 37200 ft | 617 kts | 106° |
| 2026-04-26 20:38 | 27.92587 | -85.40769 | 37118 ft | 618 kts | 105° |
| 2026-04-26 20:38 | 27.91275 | -85.36119 | 36611 ft | 623 kts | 105° |
| 2026-04-26 20:38 | 27.89906 | -85.31518 | 36861 ft | 616 kts | 105° |
| 2026-04-26 20:38 | 27.88588 | -85.26960 | 36512 ft | 622 kts | 105° |
| 2026-04-26 20:39 | 27.87253 | -85.22265 | 36252 ft | 602 kts | 105° |
| 2026-04-26 20:39 | 27.86033 | -85.17750 | 36776 ft | 599 kts | 102° |
| 2026-04-26 20:39 | 27.85802 | -85.13261 | 37107 ft | 576 kts | 80° |
| 2026-04-26 20:40 | 27.85950 | -85.04077 | 37046 ft | 595 kts | 87° |
| 2026-04-26 20:40 | 27.85813 | -84.94628 | 36933 ft | 606 kts | 86° |
| 2026-04-26 20:41 | 27.85689 | -84.85119 | 36926 ft | 602 kts | 86° |
| 2026-04-26 20:41 | 27.85647 | -84.80381 | 36590 ft | 605 kts | 86° |
| 2026-04-26 20:41 | 27.85580 | -84.75665 | 36399 ft | 593 kts | 86° |
| 2026-04-26 20:41 | 27.85517 | -84.71166 | 35813 ft | 591 kts | 86° |
| 2026-04-26 20:42 | 27.85467 | -84.66483 | 35344 ft | 588 kts | 86° |
| 2026-04-26 20:42 | 27.85453 | -84.61914 | 34597 ft | 591 kts | 86° |
| 2026-04-26 20:42 | 27.85433 | -84.57219 | 33900 ft | 592 kts | 86° |
| 2026-04-26 20:42 | 27.85442 | -84.52574 | 33191 ft | 592 kts | 86° |
| 2026-04-26 20:43 | 27.85384 | -84.47923 | 32606 ft | 590 kts | 87° |
| 2026-04-26 20:43 | 27.85341 | -84.43298 | 32087 ft | 587 kts | 86° |
| 2026-04-26 20:43 | 27.85294 | -84.38713 | 31783 ft | 581 kts | 87° |
| 2026-04-26 20:43 | 27.85247 | -84.34142 | 31059 ft | 583 kts | 86° |
| 2026-04-26 20:44 | 27.85232 | -84.29557 | 30344 ft | 585 kts | 86° |
| 2026-04-26 20:44 | 27.85218 | -84.24949 | 29595 ft | 586 kts | 87° |
| 2026-04-26 20:44 | 27.85205 | -84.20420 | 29072 ft | 582 kts | 87° |
| 2026-04-26 20:44 | 27.85203 | -84.15861 | 28498 ft | 580 kts | 87° |
| 2026-04-26 20:45 | 27.85206 | -84.11245 | 27831 ft | 580 kts | 87° |
| 2026-04-26 20:45 | 27.85205 | -84.06744 | 27119 ft | 582 kts | 87° |
| 2026-04-26 20:45 | 27.85218 | -84.02170 | 26413 ft | 583 kts | 87° |
| 2026-04-26 20:45 | 27.85270 | -83.97518 | 25787 ft | 587 kts | 87° |
| 2026-04-26 20:46 | 27.85341 | -83.92942 | 25320 ft | 592 kts | 86° |
| 2026-04-26 20:46 | 27.85493 | -83.88202 | 24895 ft | 600 kts | 86° |
| 2026-04-26 20:46 | 27.85679 | -83.83527 | 24384 ft | 608 kts | 86° |
| 2026-04-26 20:46 | 27.85870 | -83.78709 | 23795 ft | 617 kts | 86° |
| 2026-04-26 20:47 | 27.86104 | -83.73903 | 23257 ft | 621 kts | 86° |
| 2026-04-26 20:47 | 27.86215 | -83.70599 | 22860 ft | 624 kts | 86° |
| 2026-04-26 20:47 | 27.86475 | -83.64112 | 22040 ft | 626 kts | 86° |
| 2026-04-26 20:47 | 27.86657 | -83.59278 | 21401 ft | 594 kts | 86° |
| 2026-04-26 20:48 | 27.86805 | -83.54715 | 20764 ft | 574 kts | 86° |
| 2026-04-26 20:48 | 27.86932 | -83.50219 | 20150 ft | 570 kts | 86° |
| 2026-04-26 20:48 | 27.87069 | -83.45794 | 19595 ft | 563 kts | 86° |
| 2026-04-26 20:48 | 27.87198 | -83.41415 | 19104 ft | 561 kts | 87° |
| 2026-04-26 20:49 | 27.87290 | -83.36990 | 18644 ft | 561 kts | 88° |
| 2026-04-26 20:49 | 27.87419 | -83.32544 | 17939 ft | 573 kts | 86° |
| 2026-04-26 20:49 | 27.87607 | -83.28173 | 17431 ft | 587 kts | 85° |
| 2026-04-26 20:49 | 27.87885 | -83.23464 | 16957 ft | 609 kts | 84° |
| 2026-04-26 20:50 | 27.88410 | -83.18694 | 16951 ft | 617 kts | 79° |
| 2026-04-26 20:50 | 27.89096 | -83.13826 | 16420 ft | 635 kts | 80° |
| 2026-04-26 20:50 | 27.89709 | -83.08813 | 14750 ft | 651 kts | 81° |
| 2026-04-26 20:50 | 27.90015 | -83.03751 | 14080 ft | 648 kts | 87° |
| 2026-04-26 20:51 | 27.90300 | -82.98723 | 13871 ft | 629 kts | 81° |
| 2026-04-26 20:51 | 27.90701 | -82.94288 | 13254 ft | 540 kts | 83° |
| 2026-04-26 20:51 | 27.91020 | -82.90061 | 12622 ft | 545 kts | 83° |
| 2026-04-26 20:51 | 27.91372 | -82.85756 | 11985 ft | 555 kts | 83° |
| 2026-04-26 20:52 | 27.91762 | -82.81405 | 11394 ft | 557 kts | 83° |
| 2026-04-26 20:52 | 27.92147 | -82.77215 | 10788 ft | 552 kts | 83° |
| 2026-04-26 20:52 | 27.92503 | -82.72976 | 10211 ft | 495 kts | 82° |
| 2026-04-26 20:52 | 27.92808 | -82.69315 | 9725 ft | 481 kts | 83° |
| 2026-04-26 20:53 | 27.93111 | -82.65574 | 9430 ft | 449 kts | 83° |
| 2026-04-26 20:53 | 27.93393 | -82.62195 | 8983 ft | 416 kts | 83° |
| 2026-04-26 20:53 | 27.93633 | -82.59048 | 8772 ft | 396 kts | 83° |
| 2026-04-26 20:53 | 27.93895 | -82.55879 | 8468 ft | 422 kts | 82° |
| 2026-04-26 20:54 | 27.94236 | -82.52530 | 8066 ft | 448 kts | 82° |
| 2026-04-26 20:54 | 27.94543 | -82.49217 | 7590 ft | 403 kts | 82° |
| 2026-04-26 20:54 | 27.94803 | -82.46006 | 7090 ft | 405 kts | 83° |
| 2026-04-26 20:54 | 27.95065 | -82.42896 | 6643 ft | 394 kts | 83° |
| 2026-04-26 20:55 | 27.95334 | -82.39785 | 6199 ft | 398 kts | 83° |
| 2026-04-26 20:55 | 27.95626 | -82.36681 | 5734 ft | 390 kts | 83° |
| 2026-04-26 20:55 | 27.95904 | -82.33547 | 5249 ft | 409 kts | 83° |
| 2026-04-26 20:55 | 27.96194 | -82.30398 | 4769 ft | 414 kts | 83° |
| 2026-04-26 20:56 | 27.96461 | -82.27392 | 4355 ft | 373 kts | 83° |
| 2026-04-26 20:56 | 27.96706 | -82.24552 | 3980 ft | 352 kts | 83° |
| 2026-04-26 20:56 | 27.96947 | -82.21897 | 4022 ft | 335 kts | 83° |
| 2026-04-26 20:56 | 27.97204 | -82.19248 | 4008 ft | 338 kts | 82° |
| 2026-04-26 20:57 | 27.97438 | -82.16653 | 3968 ft | 326 kts | 84° |
| 2026-04-26 20:57 | 27.97673 | -82.14100 | 3978 ft | 339 kts | 83° |
| 2026-04-26 20:57 | 27.97963 | -82.11288 | 3996 ft | 361 kts | 82° |
| 2026-04-26 20:57 | 27.98235 | -82.08585 | 4001 ft | 334 kts | 83° |
| 2026-04-26 20:58 | 27.98210 | -82.05922 | 3996 ft | 348 kts | 109° |
| 2026-04-26 20:58 | 27.96702 | -82.04048 | 4073 ft | 323 kts | 165° |
| 2026-04-26 20:58 | 27.94464 | -82.03775 | 3921 ft | 329 kts | 176° |
| 2026-04-26 20:58 | 27.92250 | -82.03343 | 3723 ft | 329 kts | 172° |
| 2026-04-26 20:59 | 27.89936 | -82.03157 | 3678 ft | 332 kts | 184° |
| 2026-04-26 20:59 | 27.87595 | -82.03193 | 3449 ft | 346 kts | 180° |
| 2026-04-26 20:59 | 27.85218 | -82.03208 | 3203 ft | 337 kts | 184° |
| 2026-04-26 20:59 | 27.82811 | -82.03235 | 3016 ft | 346 kts | 182° |
| 2026-04-26 21:00 | 27.80545 | -82.03259 | 3021 ft | 312 kts | 186° |
| 2026-04-26 21:00 | 27.78369 | -82.03330 | 3006 ft | 336 kts | 183° |
| 2026-04-26 21:00 | 27.76063 | -82.03348 | 3006 ft | 316 kts | 184° |
| 2026-04-26 21:00 | 27.73847 | -82.03391 | 3026 ft | 320 kts | 184° |
| 2026-04-26 21:01 | 27.71732 | -82.03235 | 3090 ft | 318 kts | 166° |
| 2026-04-26 21:01 | 27.69849 | -82.01630 | 3066 ft | 351 kts | 116° |
| 2026-04-26 21:01 | 27.69904 | -81.99173 | 3050 ft | 317 kts | 51° |
| 2026-04-26 21:01 | 27.71842 | -81.98109 | 3088 ft | 315 kts | 360° |
| 2026-04-26 21:02 | 27.74097 | -81.98382 | 2986 ft | 350 kts | 350° |
| 2026-04-26 21:02 | 27.76456 | -81.98771 | 2981 ft | 328 kts | 349° |
| 2026-04-26 21:02 | 27.78430 | -81.99033 | 2950 ft | 281 kts | 350° |
| 2026-04-26 21:02 | 27.80324 | -81.99257 | 2980 ft | 272 kts | 352° |
| 2026-04-26 21:03 | 27.82135 | -81.99483 | 3093 ft | 256 kts | 349° |
| 2026-04-26 21:03 | 27.83924 | -81.99738 | 3101 ft | 263 kts | 350° |
| 2026-04-26 21:03 | 27.85744 | -81.99956 | 3192 ft | 265 kts | 351° |
| 2026-04-26 21:03 | 27.87605 | -82.00147 | 3147 ft | 272 kts | 352° |
| 2026-04-26 21:04 | 27.89473 | -82.00303 | 3131 ft | 265 kts | 352° |
| 2026-04-26 21:04 | 27.91286 | -82.00542 | 2997 ft | 261 kts | 349° |
| 2026-04-26 21:04 | 27.93046 | -82.00816 | 2949 ft | 249 kts | 348° |
| 2026-04-26 21:04 | 27.94721 | -82.00904 | 2858 ft | 241 kts | 19° |
| 2026-04-26 21:05 | 27.95369 | -81.99305 | 2567 ft | 256 kts | 99° |
| 2026-04-26 21:05 | 27.95101 | -81.97375 | 2545 ft | 242 kts | 97° |
| 2026-04-26 21:05 | 27.94890 | -81.95491 | 2678 ft | 243 kts | 96° |
| 2026-04-26 21:05 | 27.94743 | -81.93582 | 2927 ft | 237 kts | 93° |
| 2026-04-26 21:06 | 27.94624 | -81.91742 | 3190 ft | 244 kts | 93° |
| 2026-04-26 21:06 | 27.94904 | -81.89915 | 3249 ft | 243 kts | 49° |
| 2026-04-26 21:06 | 27.96210 | -81.89088 | 2792 ft | 211 kts | 2° |
| 2026-04-26 21:06 | 27.97202 | -81.89041 | 2578 ft | 211 kts | 357° |
| 2026-04-26 21:07 | 27.98600 | -81.89205 | 2470 ft | 194 kts | 326° |
| 2026-04-26 21:07 | 27.99043 | -81.90439 | 2195 ft | 180 kts | 269° |
| 2026-04-26 21:07 | 27.98696 | -81.91807 | 2085 ft | 195 kts | 227° |
| 2026-04-26 21:07 | 27.97359 | -81.92098 | 2224 ft | 214 kts | 158° |
| 2026-04-26 21:08 | 27.96678 | -81.90761 | 2196 ft | 212 kts | 79° |
| 2026-04-26 21:08 | 27.97657 | -81.89580 | 2395 ft | 214 kts | 13° |
| 2026-04-26 21:08 | 27.98898 | -81.90005 | 2549 ft | 190 kts | 284° |
| 2026-04-26 21:08 | 27.98932 | -81.91494 | 2220 ft | 188 kts | 271° |
| 2026-04-26 21:09 | 27.98932 | -81.92959 | 1943 ft | 187 kts | 271° |
| 2026-04-26 21:09 | 27.98927 | -81.94430 | 1650 ft | 185 kts | 271° |
| 2026-04-26 21:09 | 27.98925 | -81.95800 | 1309 ft | 151 kts | 270° |
| 2026-04-26 21:09 | 27.98918 | -81.96865 | 1122 ft | 125 kts | 271° |
| 2026-04-26 21:10 | 27.98914 | -81.97818 | 939 ft | 114 kts | 272° |
| 2026-04-26 21:10 | 27.98926 | -81.98812 | 614 ft | 132 kts | 270° |
| 2026-04-26 21:10 | 27.98929 | -81.99860 | 371 ft | 139 kts | 271° |
| 2026-04-26 21:10 | 27.98930 | -82.00936 | 164 ft | 123 kts | 270° |
| 2026-04-26 21:11 | 27.98931 | -82.01738 | 141 ft | 84 kts | 270° |
| 2026-04-26 21:11 | 27.98932 | -82.02288 | 139 ft | 63 kts | 270° |
| 2026-04-26 21:11 | 27.98931 | -82.02793 | 136 ft | 73 kts | 270° |
| 2026-04-26 21:11 | 27.98930 | -82.03284 | 136 ft | 34 kts | 269° |
| 2026-04-26 21:12 | 27.98923 | -82.03375 | 136 ft | 2 kts | 259° |
| 2026-04-26 21:12 | 27.98909 | -82.03383 | 136 ft | 16 kts | 175° |
| 2026-04-26 21:12 | 27.98836 | -82.03367 | 136 ft | 0 kts | 163° |
| 2026-04-26 21:12 | 27.98829 | -82.03364 | 136 ft | 0 kts | 159° |
| 2026-04-26 21:13 | 27.98826 | -82.03349 | 136 ft | 12 kts | 94° |
| 2026-04-26 21:13 | 27.98817 | -82.03183 | 136 ft | 28 kts | 92° |
| 2026-04-26 21:13 | 27.98816 | -82.02918 | 133 ft | 40 kts | 89° |
| 2026-04-26 21:13 | 27.98819 | -82.02614 | 134 ft | 29 kts | 89° |
| 2026-04-26 21:14 | 27.98813 | -82.02393 | 135 ft | 15 kts | 91° |
| 2026-04-26 21:14 | 27.98800 | -82.02307 | 135 ft | 13 kts | 137° |
| 2026-04-26 21:14 | 27.98739 | -82.02281 | 135 ft | 12 kts | 162° |
| 2026-04-26 21:14 | 27.98731 | -82.02164 | 139 ft | 21 kts | 90° |
| 2026-04-26 21:15 | 27.98729 | -82.01982 | 142 ft | 26 kts | 90° |
| 2026-04-26 21:15 | 27.98724 | -82.01789 | 143 ft | 17 kts | 92° |
| 2026-04-26 21:15 | 27.98727 | -82.01698 | 145 ft | 12 kts | 85° |
| 2026-04-26 21:15 | 27.98698 | -82.01630 | 146 ft | 5 kts | 127° |
| 2026-04-26 21:16 | 27.98723 | -82.01600 | 146 ft | 2 kts | 329° |
| 2026-04-26 21:16 | 27.98724 | -82.01601 | 146 ft | 0 kts | 314° |